createdAt,value
2022-07-27T00:01:50.912Z,100722.66
2022-07-27T00:04:37.620Z,100542.91
2022-07-27T00:07:40.641Z,100613.06
2022-07-27T00:10:19.457Z,100679.41
2022-07-27T00:36:52.186Z,100648.06
2022-07-27T00:47:55.980Z,100548.97
2022-07-27T00:51:09.749Z,100712.53
2022-07-27T00:54:17.002Z,100815.91
2022-07-27T00:57:10.099Z,100565.16
2022-07-27T01:00:52.280Z,100665.41
2022-07-27T01:03:37.055Z,100672.63
2022-07-27T01:06:26.992Z,100819.06
2022-07-27T01:09:42.130Z,100715.50
2022-07-27T01:12:47.537Z,100683.91
2022-07-27T01:15:35.273Z,100681.50
2022-07-27T01:22:20.065Z,100824.56
2022-07-27T01:25:36.221Z,100548.91
2022-07-27T01:31:52.471Z,100705.13
2022-07-27T01:34:56.821Z,100528.31
2022-07-27T01:43:33.942Z,100719.75
2022-07-27T01:49:22.008Z,100506.69
2022-07-27T01:52:00.505Z,100682.44
2022-07-27T01:54:49.830Z,100738.03
2022-07-27T02:03:19.389Z,100818.16
2022-07-27T02:08:37.183Z,100666.06
2022-07-27T02:11:28.324Z,100824.84
2022-07-27T02:14:05.106Z,100817.13
2022-07-27T02:16:34.592Z,100799.44
2022-07-27T02:19:34.039Z,100694.13
2022-07-27T02:47:40.288Z,100576.34
2022-07-27T02:56:06.311Z,100842.03
2022-07-27T03:08:19.326Z,100706.72
2022-07-27T03:11:26.118Z,100750.63
2022-07-27T03:14:21.498Z,100687.00
2022-07-27T03:25:30.078Z,100807.81
2022-07-27T03:28:03.536Z,100842.16
2022-07-27T03:30:32.714Z,100841.59
2022-07-27T03:33:01.039Z,100839.72
2022-07-27T03:35:29.079Z,100812.28
2022-07-27T03:37:57.328Z,100810.22
2022-07-27T03:40:26.169Z,100842.06
2022-07-27T03:42:55.565Z,100782.91
2022-07-27T03:45:23.806Z,100853.59
2022-07-27T03:47:51.996Z,100850.34
2022-07-27T03:50:20.746Z,100838.97
2022-07-27T03:52:48.818Z,100851.75
2022-07-27T03:55:17.061Z,100805.84
2022-07-27T03:57:45.249Z,100854.72
2022-07-27T04:00:16.087Z,100853.16
2022-07-27T04:02:44.188Z,100865.31
2022-07-27T04:05:12.627Z,100863.75
2022-07-27T04:07:41.664Z,100862.81
2022-07-27T04:10:11.047Z,100857.78
2022-07-27T04:12:39.889Z,100838.59
2022-07-27T04:15:10.321Z,100859.06
2022-07-27T04:17:55.448Z,100857.47
2022-07-27T04:20:25.028Z,100861.97
2022-07-27T04:22:53.212Z,100860.38
2022-07-27T04:25:22.158Z,100862.97
2022-07-27T04:27:51.021Z,100873.41
2022-07-27T04:30:19.220Z,100869.03
2022-07-27T04:32:48.650Z,100870.69
2022-07-27T04:35:16.920Z,100843.84
2022-07-27T04:37:59.010Z,100871.38
2022-07-27T04:40:31.114Z,100858.69
2022-07-27T04:42:59.304Z,100878.47
2022-07-27T04:45:27.687Z,100880.81
2022-07-27T04:47:57.305Z,100790.34
2022-07-27T04:50:25.615Z,100847.81
2022-07-27T04:52:53.638Z,100841.50
2022-07-27T04:55:21.655Z,100875.31
2022-07-27T04:57:49.879Z,100882.22
2022-07-27T05:00:18.794Z,100879.25
2022-07-27T05:02:46.872Z,100886.88
2022-07-27T05:05:16.246Z,100892.75
2022-07-27T05:07:44.258Z,100890.69
2022-07-27T05:10:16.581Z,100902.34
2022-07-27T05:12:47.823Z,100897.59
2022-07-27T05:15:16.397Z,100897.53
2022-07-27T05:17:44.489Z,100895.84
2022-07-27T05:20:13.800Z,100886.25
2022-07-27T05:22:43.228Z,100895.47
2022-07-27T05:25:12.027Z,100906.03
2022-07-27T05:27:51.032Z,100886.88
2022-07-27T05:30:27.704Z,100873.75
2022-07-27T05:33:07.476Z,100886.06
2022-07-27T05:35:35.858Z,100884.31
2022-07-27T05:40:48.905Z,100892.47
2022-07-27T05:43:17.302Z,100905.84
2022-07-27T05:45:45.448Z,100913.38
2022-07-27T05:48:13.838Z,100912.72
2022-07-27T05:50:41.804Z,100904.34
2022-07-27T05:53:11.126Z,100912.09
2022-07-27T05:55:58.296Z,100797.03
2022-07-27T05:58:28.373Z,100801.91
2022-07-27T06:00:59.856Z,100803.81
2022-07-27T06:03:28.645Z,100675.41
2022-07-27T06:06:17.897Z,100815.00
2022-07-27T06:08:52.019Z,100885.13
2022-07-27T06:25:38.917Z,100914.56
2022-07-27T06:28:57.484Z,100715.91
2022-07-27T07:02:24.716Z,100918.94
2022-07-27T07:04:54.159Z,100920.50
2022-07-27T07:07:22.101Z,100915.16
2022-07-27T07:09:49.989Z,100911.63
2022-07-27T07:12:18.331Z,100914.91
2022-07-27T07:14:46.340Z,100908.59
2022-07-27T07:17:14.404Z,100821.81
2022-07-27T07:19:42.198Z,100896.72
2022-07-27T07:22:11.441Z,100904.69
2022-07-27T07:24:39.249Z,100909.88
2022-07-27T07:27:07.091Z,100915.53
2022-07-27T07:29:34.993Z,100914.91
2022-07-27T07:32:02.765Z,100912.47
2022-07-27T07:34:30.609Z,100898.06
2022-07-27T07:36:58.414Z,100908.25
2022-07-27T07:39:31.323Z,100903.63
2022-07-27T07:41:59.500Z,100902.28
2022-07-27T07:44:27.384Z,100898.22
2022-07-27T07:46:55.267Z,100886.50
2022-07-27T07:49:33.340Z,100906.00
2022-07-27T07:52:08.172Z,100908.63
2022-07-27T07:54:37.293Z,100900.88
2022-07-27T07:57:05.256Z,100909.16
2022-07-27T07:59:33.114Z,100905.50
2022-07-27T08:02:03.219Z,100908.28
2022-07-27T08:04:31.195Z,100909.63
2022-07-27T08:06:59.128Z,100919.31
2022-07-27T08:09:28.387Z,100910.63
2022-07-27T08:11:57.783Z,100917.28
2022-07-27T08:14:26.417Z,100921.16
2022-07-27T08:16:54.182Z,100920.47
2022-07-27T08:19:21.990Z,100898.00
2022-07-27T08:21:49.804Z,100912.31
2022-07-27T08:24:17.759Z,100906.28
2022-07-27T08:26:45.546Z,100915.88
2022-07-27T08:29:15.205Z,100919.84
2022-07-27T08:31:52.492Z,100927.06
2022-07-27T08:34:21.389Z,100892.91
2022-07-27T08:36:49.422Z,100901.50
2022-07-27T08:42:38.555Z,100913.31
2022-07-27T08:45:09.728Z,100920.94
2022-07-27T08:47:45.601Z,100921.88
2022-07-27T08:50:24.308Z,100896.81
2022-07-27T08:52:56.847Z,100919.22
2022-07-27T08:55:25.357Z,100907.13
2022-07-27T08:57:54.956Z,100916.28
2022-07-27T09:00:28.246Z,100915.59
2022-07-27T09:02:57.244Z,100912.94
2022-07-27T09:05:25.209Z,100919.00
2022-07-27T09:08:10.857Z,100914.03
2022-07-27T09:10:39.286Z,100858.03
2022-07-27T09:13:22.065Z,100892.63
2022-07-27T09:18:41.632Z,100882.72
2022-07-27T09:21:15.797Z,100924.91
2022-07-27T09:23:48.365Z,100916.03
2022-07-27T09:34:32.230Z,100712.59
2022-07-27T09:37:11.136Z,100880.16
2022-07-27T09:39:39.078Z,100886.53
2022-07-27T09:42:08.306Z,100924.28
2022-07-27T09:44:43.035Z,100839.53
2022-07-27T09:47:26.403Z,100794.56
2022-07-27T09:49:57.251Z,100898.91
2022-07-27T09:52:34.902Z,100911.16
2022-07-27T09:55:05.254Z,100906.66
2022-07-27T09:57:52.328Z,100913.06
2022-07-27T10:00:22.020Z,100789.28
2022-07-27T10:02:51.393Z,100881.00
2022-07-27T10:05:23.795Z,100770.63
2022-07-27T10:08:58.077Z,100749.59
2022-07-27T10:11:28.632Z,100839.97
2022-07-27T10:13:59.329Z,100925.53
2022-07-27T10:16:31.652Z,100929.38
2022-07-27T10:19:08.563Z,100926.09
2022-07-27T10:21:38.736Z,100922.00
2022-07-27T10:24:10.437Z,100914.41
2022-07-27T10:26:58.627Z,100895.16
2022-07-27T10:29:27.184Z,100897.06
2022-07-27T10:32:00.922Z,100920.25
2022-07-27T10:34:37.602Z,100904.25
2022-07-27T10:37:10.456Z,100904.22
2022-07-27T10:39:43.002Z,100912.19
2022-07-27T10:42:29.201Z,100909.50
2022-07-27T10:45:03.445Z,100925.44
2022-07-27T10:47:40.392Z,100928.53
2022-07-27T10:50:30.846Z,100918.16
2022-07-27T10:53:02.255Z,100938.75
2022-07-27T10:55:58.525Z,100931.78
2022-07-27T10:58:46.539Z,100925.19
2022-07-27T11:01:16.236Z,100929.47
2022-07-27T11:03:52.360Z,100924.31
2022-07-27T11:53:59.679Z,100896.06
2022-07-27T11:57:24.286Z,100888.28
2022-07-27T11:59:53.858Z,100900.44
2022-07-27T12:02:22.636Z,100899.91
2022-07-27T12:04:53.229Z,100875.88
2022-07-27T12:07:24.040Z,100828.44
2022-07-27T12:09:55.667Z,100798.25
2022-07-27T12:12:25.979Z,100786.66
2022-07-27T12:14:57.534Z,100797.09
2022-07-27T12:17:30.858Z,100777.03
2022-07-27T12:20:01.835Z,100785.41
2022-07-27T12:22:32.924Z,100806.00
2022-07-27T12:25:11.296Z,100837.91
2022-07-27T12:27:55.188Z,100790.09
2022-07-27T12:30:32.199Z,100761.78
2022-07-27T12:33:00.953Z,100768.34
2022-07-27T12:35:37.059Z,100790.19
2022-07-27T12:38:08.920Z,100869.91
2022-07-27T12:40:45.834Z,100877.06
2022-07-27T12:43:18.147Z,100875.50
2022-07-27T12:45:49.134Z,100871.88
2022-07-27T12:48:19.452Z,100801.81
2022-07-27T12:50:49.498Z,100873.44
2022-07-27T12:53:18.405Z,100762.31
2022-07-27T12:55:46.609Z,100863.34
2022-07-27T12:58:15.315Z,100764.69
2022-07-27T13:00:44.111Z,100678.06
2022-07-27T13:03:13.595Z,100853.94
2022-07-27T13:05:42.431Z,100777.19
2022-07-27T13:08:10.927Z,100768.59
2022-07-27T13:10:39.585Z,100801.72
2022-07-27T13:13:09.093Z,100762.53
2022-07-27T13:15:37.421Z,100718.06
2022-07-27T13:18:05.531Z,100863.50
2022-07-27T13:20:35.145Z,100762.09
2022-07-27T13:23:03.154Z,100871.81
2022-07-27T13:25:31.299Z,100871.50
2022-07-27T13:27:59.426Z,100743.63
2022-07-27T13:30:27.468Z,100776.72
2022-07-27T13:32:55.533Z,100760.03
2022-07-27T13:35:23.626Z,100859.13
2022-07-27T13:37:53.546Z,100749.72
2022-07-27T13:40:21.924Z,100726.75
2022-07-27T13:42:50.064Z,100868.22
2022-07-27T13:45:18.207Z,100880.28
2022-07-27T13:47:46.454Z,100870.19
2022-07-27T13:50:19.255Z,100860.22
2022-07-27T13:52:48.527Z,100879.22
2022-07-27T13:55:19.095Z,100772.34
2022-07-27T13:57:48.100Z,100776.41
2022-07-27T14:00:17.692Z,100786.25
2022-07-27T14:02:46.344Z,100871.91
2022-07-27T14:05:15.823Z,100855.88
2022-07-27T14:07:44.863Z,100745.44
2022-07-27T14:10:31.418Z,100739.97
2022-07-27T14:13:07.713Z,100863.25
2022-07-27T14:15:53.149Z,100873.13
2022-07-27T14:18:27.472Z,100859.47
2022-07-27T14:20:56.142Z,100735.97
2022-07-27T14:23:26.164Z,100758.69
2022-07-27T14:25:55.397Z,100866.75
2022-07-27T14:28:50.348Z,100854.09
2022-07-27T14:32:04.707Z,100849.50
2022-07-27T14:36:08.585Z,100852.94
2022-07-27T14:38:40.886Z,100847.72
2022-07-27T14:46:02.569Z,100818.63
2022-07-27T14:51:19.426Z,100832.25
2022-07-27T14:53:47.713Z,100690.47
2022-07-27T14:56:16.056Z,100835.28
2022-07-27T14:58:44.784Z,100780.75
2022-07-27T15:01:16.901Z,100835.97
2022-07-27T15:03:46.250Z,100690.75
2022-07-27T15:06:14.298Z,100827.75
2022-07-27T15:08:42.377Z,100823.16
2022-07-27T15:11:11.336Z,100823.50
2022-07-27T15:13:40.640Z,100820.53
2022-07-27T15:16:09.403Z,100714.34
2022-07-27T15:18:39.919Z,100726.50
2022-07-27T15:21:12.974Z,100731.25
2022-07-27T15:23:48.956Z,100716.31
2022-07-27T15:26:17.984Z,100643.59
2022-07-27T15:28:45.979Z,100780.44
2022-07-27T15:31:14.632Z,100713.78
2022-07-27T15:33:45.365Z,100767.16
2022-07-27T15:36:32.035Z,100777.53
2022-07-27T15:39:02.607Z,100768.53
2022-07-27T15:41:37.180Z,100806.94
2022-07-27T15:44:05.976Z,100803.16
2022-07-27T15:46:34.817Z,100793.41
2022-07-27T15:49:04.840Z,100701.63
2022-07-27T15:51:33.158Z,100801.97
2022-07-27T15:54:01.223Z,100800.78
2022-07-27T15:56:29.430Z,100760.56
2022-07-27T15:58:57.542Z,100796.03
2022-07-27T16:01:35.306Z,100797.16
2022-07-27T16:04:06.310Z,100742.78
2022-07-27T16:06:39.145Z,100701.44
2022-07-27T16:12:12.219Z,100587.19
2022-07-27T16:14:45.362Z,100543.94
2022-07-27T16:23:55.394Z,100716.50
2022-07-27T16:26:23.771Z,100755.75
2022-07-27T16:28:52.967Z,100769.75
2022-07-27T16:31:21.044Z,100781.50
2022-07-27T16:33:54.984Z,100775.91
2022-07-27T16:36:24.367Z,100771.03
2022-07-27T16:38:53.361Z,100751.28
2022-07-27T16:41:22.315Z,100779.47
2022-07-27T16:43:50.851Z,100762.47
2022-07-27T16:46:19.097Z,100774.53
2022-07-27T16:48:47.848Z,100746.22
2022-07-27T16:51:16.541Z,100765.63
2022-07-27T16:53:47.892Z,100756.41
2022-07-27T16:56:15.760Z,100763.66
2022-07-27T16:58:44.381Z,100727.81
2022-07-27T17:01:22.352Z,100761.66
2022-07-27T17:03:58.550Z,100759.22
2022-07-27T17:06:27.075Z,100761.72
2022-07-27T17:08:56.594Z,100766.03
2022-07-27T17:11:24.971Z,100773.63
2022-07-27T17:13:58.890Z,100770.38
2022-07-27T17:16:28.038Z,100768.47
2022-07-27T17:18:56.532Z,100757.22
2022-07-27T17:21:24.643Z,100758.50
2022-07-27T17:24:21.538Z,100727.25
2022-07-27T17:34:56.237Z,100770.72
2022-07-27T17:37:24.007Z,100765.03
2022-07-27T17:39:51.739Z,100768.63
2022-07-27T17:42:19.510Z,100767.09
2022-07-27T17:44:47.300Z,100749.13
2022-07-27T17:47:15.230Z,100769.41
2022-07-27T17:49:43.705Z,100767.03
2022-07-27T17:52:12.954Z,100773.50
2022-07-27T17:58:34.260Z,100773.22
2022-07-27T18:01:02.749Z,100754.91
2022-07-27T18:03:30.495Z,100763.56
2022-07-27T18:05:58.651Z,100769.19
2022-07-27T18:08:28.183Z,100785.91
2022-07-27T18:10:56.144Z,100760.06
2022-07-27T18:13:23.944Z,100794.03
2022-07-27T18:16:08.146Z,100785.50
2022-07-27T18:18:37.027Z,100791.09
2022-07-27T18:21:05.750Z,100790.13
2022-07-27T18:23:35.357Z,100792.75
2022-07-27T18:26:03.275Z,100791.94
2022-07-27T18:28:37.287Z,100790.13
2022-07-27T18:31:07.616Z,100796.09
2022-07-27T18:37:01.968Z,100793.47
2022-07-27T18:39:32.222Z,100795.94
2022-07-27T18:42:03.587Z,100784.69
2022-07-27T18:44:38.444Z,100753.84
2022-07-27T18:47:06.883Z,100800.13
2022-07-27T18:49:34.694Z,100800.06
2022-07-27T18:52:02.516Z,100798.97
2022-07-27T18:54:31.614Z,100798.69
2022-07-27T18:56:59.872Z,100711.59
2022-07-27T18:59:27.640Z,100799.09
2022-07-27T19:01:55.547Z,100796.19
2022-07-27T19:04:24.789Z,100801.22
2022-07-27T19:06:52.755Z,100799.25
2022-07-27T19:09:21.400Z,100795.59
2022-07-27T19:11:50.480Z,100802.22
2022-07-27T19:14:22.747Z,100797.22
2022-07-27T19:16:51.157Z,100802.91
2022-07-27T19:19:23.038Z,100760.47
2022-07-27T19:21:51.356Z,100817.34
2022-07-27T19:24:19.593Z,100816.28
2022-07-27T19:26:47.360Z,100820.38
2022-07-27T19:29:17.950Z,100823.59
2022-07-27T19:31:45.701Z,100819.91
2022-07-27T19:34:13.715Z,100757.66
2022-07-27T19:36:41.932Z,100812.63
2022-07-27T19:39:10.233Z,100813.47
2022-07-27T19:41:40.074Z,100808.63
2022-07-27T19:44:08.557Z,100826.81
2022-07-27T19:46:38.529Z,100822.59
2022-07-27T19:49:06.343Z,100793.22
2022-07-27T19:51:34.139Z,100841.53
2022-07-27T19:54:01.921Z,100813.53
2022-07-27T19:56:32.782Z,100842.69
2022-07-27T19:59:04.931Z,100842.44
2022-07-27T20:01:32.731Z,100835.13
2022-07-27T20:04:05.227Z,100836.53
2022-07-27T20:06:34.600Z,100838.91
2022-07-27T20:09:02.339Z,100842.06
2022-07-27T20:11:31.013Z,100845.91
2022-07-27T20:13:59.239Z,100789.44
2022-07-27T20:16:29.663Z,100819.91
2022-07-27T20:18:57.525Z,100851.44
2022-07-27T20:21:27.056Z,100844.84
2022-07-27T20:23:57.317Z,100838.31
2022-07-27T20:26:25.209Z,100842.97
2022-07-27T20:28:53.207Z,100841.75
2022-07-27T20:31:21.273Z,100848.22
2022-07-27T20:33:49.190Z,100838.28
2022-07-27T20:36:16.963Z,100843.91
2022-07-27T20:38:46.038Z,100842.53
2022-07-27T20:41:13.892Z,100846.53
2022-07-27T20:43:41.740Z,100857.47
2022-07-27T20:46:09.606Z,100838.50
2022-07-27T20:48:38.366Z,100854.69
2022-07-27T20:51:06.147Z,100855.16
2022-07-27T20:53:33.974Z,100859.06
2022-07-27T20:56:03.076Z,100862.94
2022-07-27T20:58:31.530Z,100865.03
2022-07-27T21:00:59.667Z,100863.69
2022-07-27T21:03:27.936Z,100864.09
2022-07-27T21:05:55.791Z,100863.69
2022-07-27T21:08:23.556Z,100866.59
2022-07-27T21:10:51.318Z,100833.22
2022-07-27T21:13:20.610Z,100842.88
2022-07-27T21:15:48.424Z,100872.00
2022-07-27T21:18:16.252Z,100873.22
2022-07-27T21:20:44.005Z,100865.81
2022-07-27T21:23:38.026Z,100870.50
2022-07-27T21:26:05.976Z,100874.41
2022-07-27T21:28:36.338Z,100873.91
2022-07-27T21:31:04.615Z,100875.94
2022-07-27T21:33:37.577Z,100873.06
2022-07-27T21:36:07.738Z,100879.94
2022-07-27T21:38:35.549Z,100856.84
2022-07-27T21:41:03.303Z,100883.13
2022-07-27T21:43:33.052Z,100869.16
2022-07-27T21:46:02.214Z,100886.25
2022-07-27T21:48:30.003Z,100879.59
2022-07-27T21:50:59.332Z,100873.19
2022-07-27T21:53:27.112Z,100882.66
2022-07-27T21:55:54.855Z,100886.31
2022-07-27T21:58:29.343Z,100798.00
2022-07-27T22:01:10.851Z,100869.44
2022-07-27T22:04:00.471Z,100881.78
2022-07-27T22:06:32.879Z,100803.88
2022-07-27T22:09:01.282Z,100770.72
2022-07-27T22:11:30.797Z,100879.84
2022-07-27T22:14:02.932Z,100882.59
2022-07-27T22:16:39.615Z,100881.09
2022-07-27T22:19:07.949Z,100881.28
2022-07-27T22:21:37.725Z,100881.50
2022-07-27T22:24:15.954Z,100858.03
2022-07-27T22:26:46.964Z,100829.06
2022-07-27T22:29:14.772Z,100872.75
2022-07-27T22:31:50.229Z,100857.09
2022-07-27T22:34:24.226Z,100858.16
2022-07-27T22:36:58.505Z,100808.03
2022-07-27T22:39:26.460Z,100873.91
2022-07-27T22:41:54.268Z,100817.56
2022-07-27T22:44:22.453Z,100881.78
2022-07-27T22:46:51.654Z,100834.25
2022-07-27T22:49:19.568Z,100874.31
2022-07-27T22:51:49.504Z,100876.22
2022-07-27T22:54:20.777Z,100884.19
2022-07-27T22:56:48.675Z,100886.91
2022-07-27T22:59:16.505Z,100778.59
2022-07-27T23:01:47.339Z,100897.56
2022-07-27T23:04:28.389Z,100891.63
2022-07-27T23:06:57.761Z,100869.97
2022-07-27T23:09:27.593Z,100865.84
2022-07-27T23:12:01.491Z,100895.56
2022-07-27T23:14:30.575Z,100889.72
2022-07-27T23:17:02.898Z,100899.94
2022-07-27T23:19:32.248Z,100893.16
2022-07-27T23:22:01.714Z,100895.81
2022-07-27T23:24:29.814Z,100893.53
2022-07-27T23:26:58.110Z,100896.97
2022-07-27T23:29:26.292Z,100893.53
2022-07-27T23:31:54.482Z,100874.22
2022-07-27T23:34:25.393Z,100903.91
2022-07-27T23:36:55.243Z,100897.94
2022-07-27T23:39:24.442Z,100901.34
2022-07-27T23:41:52.539Z,100838.13
2022-07-27T23:44:20.382Z,100630.47
2022-07-27T23:46:48.518Z,100884.53
2022-07-27T23:49:16.625Z,100889.59
2022-07-27T23:51:45.642Z,100895.66
2022-07-27T23:54:16.285Z,100870.28
2022-07-27T23:56:44.263Z,100885.56
2022-07-27T23:59:12.643Z,100884.66
